Historique des mesures à Cassis (13260), France
Quotidien Résumé Juin 24, 2017 Unités:  Métrique    US   Métrique/US
« Précédent (Jour)
Suivant (Jour) »
Quotidien Hebdomadaire Mensuel Annuel Période au choix
  Maximum: Minimum: Moyenne:
Température: TemperatureC °C 23.8 °C 26.9 °C
Point de rosée: DewpointC °C 18.2 °C 20 °C
Humidité: Humidity % 49 % 63 %
Vitesse du vent: 0 km/h 0 km/h 5.1 km/h
Rafales: 0 km/h - -
Vent:- - South
Pression: PressurehPa hPa 1010.7 hPa -
Précipitations: 0.0 mm    
Historical Graphs
 
 
Mesures pour : Juin 24, 2017
Heure Temperature Point de rosée Pression Vent Vitesse du vent Rafales Humidité Pluie (par heure) Conditions
TemperatureC °C DewpointC °C PressurehPa hPa Calm     Humidity % HourlyPrecipMM mm SoftwareType W/m2
00:10 25.8 °C 19.9 °C 1013.4 hPa NW 9.8 km/h 9.8 km/h 70 % 0.0 mm open2300-1.11 W/m2
01:10 25.6 °C 20.4 °C 1013.1 hPa Calm     73 % 0.0 mm open2300-1.11 W/m2
02:10 24.9 °C 19.7 °C 1012.8 hPa Calm     73 % 0.0 mm open2300-1.11 W/m2
03:10 24.8 °C 19.8 °C 1012.8 hPa Calm   1.8 km/h 74 % 0.0 mm open2300-1.11 W/m2
05:10 24.4 °C 19.7 °C 1011.7 hPa Calm     75 % 0.0 mm open2300-1.11 W/m2
06:10 23.8 °C 19.3 °C 1011.7 hPa Calm     76 % 0.0 mm open2300-1.11 W/m2
07:10 23.9 °C 19.4 °C 1012.1 hPa Calm     76 % 0.0 mm open2300-1.11 W/m2
08:10 26.9 °C 21.4 °C 1012.4 hPa South 4.2 km/h 4.2 km/h 72 % 0.0 mm open2300-1.11 W/m2
09:10 26.5 °C 21.5 °C 1012.4 hPa SSE 10.3 km/h 10.3 km/h 74 % 0.0 mm open2300-1.11 W/m2
10:10 27.1 °C 22.3 °C 1012.8 hPa SSE 1.8 km/h 10.3 km/h 75 % 0.0 mm open2300-1.11 W/m2
11:10 29.9 °C 23.4 °C 1012.8 hPa SSE 4.7 km/h 14.5 km/h 68 % 0.0 mm open2300-1.11 W/m2
12:11 31.4 °C 23.8 °C 1012.4 hPa SSW 8 km/h 8 km/h 64 % 0.0 mm open2300-1.11 W/m2
13:10 31.9 °C 23.7 °C 1012.4 hPa WSW 10.9 km/h 13.2 km/h 62 % 0.0 mm open2300-1.11 W/m2
14:11 31.9 °C 23.4 °C 1012.4 hPa SE 6.4 km/h 11.6 km/h 61 % 0.0 mm open2300-1.11 W/m2
15:10 31.8 °C 23.6 °C 1012.1 hPa South 2.9 km/h 15.6 km/h 62 % 0.0 mm open2300-1.11 W/m2
16:10 31.6 °C 22.9 °C 1011.4 hPa SE 8 km/h 13.2 km/h 60 % 0.0 mm open2300-1.11 W/m2
17:10 31.0 °C 21.5 °C 1011.4 hPa SSE 21.6 km/h 21.6 km/h 57 % 0.0 mm open2300-1.11 W/m2
18:10 31.5 °C 19.5 °C 1010.7 hPa South 2.3 km/h 16.3 km/h 49 % 0.0 mm open2300-1.11 W/m2
19:10 30.6 °C 19.3 °C 1010.7 hPa SW 9.8 km/h 9.8 km/h 51 % 0.0 mm open2300-1.11 W/m2
20:10 29.0 °C 18.2 °C 1011.4 hPa SSW 13.2 km/h 13.2 km/h 52 % 0.0 mm open2300-1.11 W/m2
21:11 27.6 °C 18.3 °C 1011.7 hPa SE 4.2 km/h 4.7 km/h 57 % 0.0 mm open2300-1.11 W/m2
22:11 26.5 °C 19.6 °C 1011.7 hPa WSW 5.6 km/h 14 km/h 66 % 0.0 mm open2300-1.11 W/m2
23:10 26.1 °C 20.2 °C 1012.1 hPa Calm     70 % 0.0 mm open2300-1.11 W/m2
Observations météo à CASSIS
WU-History script by Weather Underground - 1 mb